sensor_id;sensor_type;location;lat;lon;timestamp;temperature;humidity
816;DHT22;25928;51.062;13.752;2022-10-22T00:00:26;13.50;1.00
816;DHT22;25928;51.062;13.752;2022-10-22T00:02:53;13.50;1.00
816;DHT22;25928;51.062;13.752;2022-10-22T00:05:19;13.50;1.00
816;DHT22;25928;51.062;13.752;2022-10-22T00:07:44;13.50;1.00
816;DHT22;25928;51.062;13.752;2022-10-22T00:10:10;13.50;1.00
816;DHT22;25928;51.062;13.752;2022-10-22T00:15:03;13.60;1.00
816;DHT22;25928;51.062;13.752;2022-10-22T00:17:29;13.60;1.00
816;DHT22;25928;51.062;13.752;2022-10-22T00:19:54;13.50;1.00
816;DHT22;25928;51.062;13.752;2022-10-22T00:22:20;13.50;1.00
816;DHT22;25928;51.062;13.752;2022-10-22T00:24:45;13.60;1.00
816;DHT22;25928;51.062;13.752;2022-10-22T00:27:11;13.50;1.00
816;DHT22;25928;51.062;13.752;2022-10-22T00:29:37;13.60;1.00
816;DHT22;25928;51.062;13.752;2022-10-22T00:32:04;14.70;1.00
816;DHT22;25928;51.062;13.752;2022-10-22T00:34:30;13.40;1.00
816;DHT22;25928;51.062;13.752;2022-10-22T00:36:55;13.40;1.00
816;DHT22;25928;51.062;13.752;2022-10-22T00:39:23;13.40;1.00
816;DHT22;25928;51.062;13.752;2022-10-22T00:41:50;13.30;1.00
816;DHT22;25928;51.062;13.752;2022-10-22T00:47:20;13.30;1.00
816;DHT22;25928;51.062;13.752;2022-10-22T00:49:47;13.30;1.00
816;DHT22;25928;51.062;13.752;2022-10-22T00:52:13;13.30;1.00
816;DHT22;25928;51.062;13.752;2022-10-22T00:54:39;13.30;1.00
816;DHT22;25928;51.062;13.752;2022-10-22T00:57:05;13.20;1.00
816;DHT22;25928;51.062;13.752;2022-10-22T00:59:32;13.30;1.00
816;DHT22;25928;51.062;13.752;2022-10-22T01:01:57;13.20;1.00
816;DHT22;25928;51.062;13.752;2022-10-22T01:04:23;13.20;1.00
816;DHT22;25928;51.062;13.752;2022-10-22T01:06:49;13.20;1.00
816;DHT22;25928;51.062;13.752;2022-10-22T01:09:24;13.20;1.00
816;DHT22;25928;51.062;13.752;2022-10-22T01:12:15;13.20;1.00
816;DHT22;25928;51.062;13.752;2022-10-22T01:18:05;13.30;1.00
816;DHT22;25928;51.062;13.752;2022-10-22T01:26:46;13.30;1.00
816;DHT22;25928;51.062;13.752;2022-10-22T01:29:28;13.30;1.00
816;DHT22;25928;51.062;13.752;2022-10-22T01:32:06;13.30;1.00
816;DHT22;25928;51.062;13.752;2022-10-22T01:34:33;13.40;1.00
816;DHT22;25928;51.062;13.752;2022-10-22T01:37:00;13.50;1.00
816;DHT22;25928;51.062;13.752;2022-10-22T01:39:28;13.50;1.00
816;DHT22;25928;51.062;13.752;2022-10-22T01:41:56;13.50;1.00
816;DHT22;25928;51.062;13.752;2022-10-22T01:44:35;13.50;1.00
816;DHT22;25928;51.062;13.752;2022-10-22T01:58:17;13.60;1.00
816;DHT22;25928;51.062;13.752;2022-10-22T02:03:55;13.50;1.00
816;DHT22;25928;51.062;13.752;2022-10-22T02:06:24;13.50;1.00
816;DHT22;25928;51.062;13.752;2022-10-22T02:08:52;13.50;1.00
816;DHT22;25928;51.062;13.752;2022-10-22T02:11:18;13.60;1.00
816;DHT22;25928;51.062;13.752;2022-10-22T02:13:50;13.60;1.00
816;DHT22;25928;51.062;13.752;2022-10-22T02:16:24;13.60;1.00
816;DHT22;25928;51.062;13.752;2022-10-22T02:18:53;13.60;1.00
816;DHT22;25928;51.062;13.752;2022-10-22T02:21:18;13.60;1.00
816;DHT22;25928;51.062;13.752;2022-10-22T02:23:44;13.70;1.00
816;DHT22;25928;51.062;13.752;2022-10-22T02:26:27;13.70;1.00
816;DHT22;25928;51.062;13.752;2022-10-22T02:28:59;13.70;1.00
816;DHT22;25928;51.062;13.752;2022-10-22T02:31:30;13.80;1.00
816;DHT22;25928;51.062;13.752;2022-10-22T02:33:58;13.70;1.00
816;DHT22;25928;51.062;13.752;2022-10-22T02:36:25;13.80;1.00
816;DHT22;25928;51.062;13.752;2022-10-22T02:38:52;13.80;1.00
816;DHT22;25928;51.062;13.752;2022-10-22T02:41:18;13.70;1.00
816;DHT22;25928;51.062;13.752;2022-10-22T02:43:51;13.70;1.00
816;DHT22;25928;51.062;13.752;2022-10-22T02:46:17;13.70;1.00
816;DHT22;25928;51.062;13.752;2022-10-22T02:48:43;13.70;1.00
816;DHT22;25928;51.062;13.752;2022-10-22T02:51:08;13.70;1.00
816;DHT22;25928;51.062;13.752;2022-10-22T02:53:34;13.80;1.00
816;DHT22;25928;51.062;13.752;2022-10-22T02:55:59;13.80;1.00
816;DHT22;25928;51.062;13.752;2022-10-22T02:58:25;13.80;1.00
816;DHT22;25928;51.062;13.752;2022-10-22T03:00:51;13.70;1.00
816;DHT22;25928;51.062;13.752;2022-10-22T03:03:16;13.70;1.00
816;DHT22;25928;51.062;13.752;2022-10-22T03:05:42;13.70;1.00
816;DHT22;25928;51.062;13.752;2022-10-22T03:08:07;13.60;1.00
816;DHT22;25928;51.062;13.752;2022-10-22T03:12:59;13.70;1.00
816;DHT22;25928;51.062;13.752;2022-10-22T03:15:25;13.60;1.00
816;DHT22;25928;51.062;13.752;2022-10-22T03:17:50;13.70;1.00
816;DHT22;25928;51.062;13.752;2022-10-22T03:20:16;13.70;1.00
816;DHT22;25928;51.062;13.752;2022-10-22T03:22:42;13.70;1.00
816;DHT22;25928;51.062;13.752;2022-10-22T03:25:12;13.70;1.00
816;DHT22;25928;51.062;13.752;2022-10-22T03:27:39;13.80;1.00
816;DHT22;25928;51.062;13.752;2022-10-22T03:30:06;13.70;1.00
816;DHT22;25928;51.062;13.752;2022-10-22T03:32:32;13.70;1.00
816;DHT22;25928;51.062;13.752;2022-10-22T03:34:57;13.80;1.00
816;DHT22;25928;51.062;13.752;2022-10-22T03:37:24;13.70;1.00
816;DHT22;25928;51.062;13.752;2022-10-22T03:39:51;13.70;1.00
816;DHT22;25928;51.062;13.752;2022-10-22T03:42:17;13.70;1.00
816;DHT22;25928;51.062;13.752;2022-10-22T03:44:42;13.70;1.00
816;DHT22;25928;51.062;13.752;2022-10-22T03:47:09;13.60;1.00
816;DHT22;25928;51.062;13.752;2022-10-22T03:49:35;13.70;1.00
816;DHT22;25928;51.062;13.752;2022-10-22T03:52:09;13.70;1.00
816;DHT22;25928;51.062;13.752;2022-10-22T03:54:35;13.70;1.00
816;DHT22;25928;51.062;13.752;2022-10-22T03:57:01;13.70;1.00
816;DHT22;25928;51.062;13.752;2022-10-22T03:59:27;13.80;1.00
816;DHT22;25928;51.062;13.752;2022-10-22T04:01:53;13.70;1.00
816;DHT22;25928;51.062;13.752;2022-10-22T04:04:18;13.70;1.00
816;DHT22;25928;51.062;13.752;2022-10-22T04:06:44;13.70;1.00
816;DHT22;25928;51.062;13.752;2022-10-22T04:09:09;13.70;1.00
816;DHT22;25928;51.062;13.752;2022-10-22T04:11:36;13.70;1.00
816;DHT22;25928;51.062;13.752;2022-10-22T04:14:02;13.60;1.00
816;DHT22;25928;51.062;13.752;2022-10-22T04:16:27;13.60;1.00
816;DHT22;25928;51.062;13.752;2022-10-22T04:18:56;13.60;1.00
816;DHT22;25928;51.062;13.752;2022-10-22T04:21:22;13.60;1.00
816;DHT22;25928;51.062;13.752;2022-10-22T04:23:49;13.60;1.00
816;DHT22;25928;51.062;13.752;2022-10-22T04:26:16;13.60;1.00
816;DHT22;25928;51.062;13.752;2022-10-22T04:28:42;13.60;1.00
816;DHT22;25928;51.062;13.752;2022-10-22T04:31:09;13.60;1.00
816;DHT22;25928;51.062;13.752;2022-10-22T04:33:35;13.60;1.00
816;DHT22;25928;51.062;13.752;2022-10-22T04:36:15;13.60;1.00
816;DHT22;25928;51.062;13.752;2022-10-22T04:38:42;13.70;1.00
816;DHT22;25928;51.062;13.752;2022-10-22T04:41:10;13.60;1.00
816;DHT22;25928;51.062;13.752;2022-10-22T04:43:35;13.60;1.00
816;DHT22;25928;51.062;13.752;2022-10-22T04:46:01;13.60;1.00
816;DHT22;25928;51.062;13.752;2022-10-22T04:48:26;13.60;1.00
816;DHT22;25928;51.062;13.752;2022-10-22T04:50:52;13.60;1.00
816;DHT22;25928;51.062;13.752;2022-10-22T04:53:18;13.60;1.00
816;DHT22;25928;51.062;13.752;2022-10-22T04:55:43;13.50;1.00
816;DHT22;25928;51.062;13.752;2022-10-22T04:58:09;13.50;1.00
816;DHT22;25928;51.062;13.752;2022-10-22T05:00:34;13.50;1.00
816;DHT22;25928;51.062;13.752;2022-10-22T05:03:00;13.50;1.00
816;DHT22;25928;51.062;13.752;2022-10-22T05:05:25;13.50;1.00
816;DHT22;25928;51.062;13.752;2022-10-22T05:07:51;13.50;1.00
816;DHT22;25928;51.062;13.752;2022-10-22T05:10:16;13.50;1.00
816;DHT22;25928;51.062;13.752;2022-10-22T05:12:42;13.50;1.00
816;DHT22;25928;51.062;13.752;2022-10-22T05:15:08;13.50;1.00
816;DHT22;25928;51.062;13.752;2022-10-22T05:17:37;13.50;1.00
816;DHT22;25928;51.062;13.752;2022-10-22T05:20:03;13.50;1.00
816;DHT22;25928;51.062;13.752;2022-10-22T05:22:29;13.60;1.00
816;DHT22;25928;51.062;13.752;2022-10-22T05:24:55;13.50;1.00
816;DHT22;25928;51.062;13.752;2022-10-22T05:27:20;13.50;1.00
816;DHT22;25928;51.062;13.752;2022-10-22T05:29:46;13.50;1.00
816;DHT22;25928;51.062;13.752;2022-10-22T05:32:11;13.50;1.00
816;DHT22;25928;51.062;13.752;2022-10-22T05:34:37;13.40;1.00
816;DHT22;25928;51.062;13.752;2022-10-22T05:37:03;13.50;1.00
816;DHT22;25928;51.062;13.752;2022-10-22T05:39:28;13.40;1.00
816;DHT22;25928;51.062;13.752;2022-10-22T05:41:54;13.40;1.00
816;DHT22;25928;51.062;13.752;2022-10-22T05:44:19;13.50;1.00
816;DHT22;25928;51.062;13.752;2022-10-22T05:46:45;13.50;1.00
816;DHT22;25928;51.062;13.752;2022-10-22T05:49:13;13.50;1.00
816;DHT22;25928;51.062;13.752;2022-10-22T05:51:39;13.40;1.00
816;DHT22;25928;51.062;13.752;2022-10-22T05:54:06;13.40;1.00
816;DHT22;25928;51.062;13.752;2022-10-22T05:56:33;13.40;1.00
816;DHT22;25928;51.062;13.752;2022-10-22T05:58:59;13.60;1.00
816;DHT22;25928;51.062;13.752;2022-10-22T06:01:30;13.70;1.00
816;DHT22;25928;51.062;13.752;2022-10-22T06:03:58;13.60;1.00
816;DHT22;25928;51.062;13.752;2022-10-22T06:06:42;13.70;1.00
816;DHT22;25928;51.062;13.752;2022-10-22T06:11:47;13.70;1.00
816;DHT22;25928;51.062;13.752;2022-10-22T06:14:13;13.70;1.00
816;DHT22;25928;51.062;13.752;2022-10-22T06:16:39;13.80;1.00
816;DHT22;25928;51.062;13.752;2022-10-22T06:19:06;13.80;1.00
816;DHT22;25928;51.062;13.752;2022-10-22T06:21:32;13.90;1.00
816;DHT22;25928;51.062;13.752;2022-10-22T06:23:59;13.90;1.00
816;DHT22;25928;51.062;13.752;2022-10-22T06:26:25;13.90;1.00
816;DHT22;25928;51.062;13.752;2022-10-22T06:28:51;13.90;1.00
816;DHT22;25928;51.062;13.752;2022-10-22T06:31:17;13.90;1.00
816;DHT22;25928;51.062;13.752;2022-10-22T06:33:42;13.90;1.00
816;DHT22;25928;51.062;13.752;2022-10-22T06:36:17;13.90;1.00
816;DHT22;25928;51.062;13.752;2022-10-22T06:38:43;13.90;1.00
816;DHT22;25928;51.062;13.752;2022-10-22T06:41:11;13.90;1.00
816;DHT22;25928;51.062;13.752;2022-10-22T06:43:38;13.90;1.00
816;DHT22;25928;51.062;13.752;2022-10-22T06:46:06;13.90;1.00
816;DHT22;25928;51.062;13.752;2022-10-22T06:48:34;14.00;1.00
816;DHT22;25928;51.062;13.752;2022-10-22T06:51:04;14.00;1.00
816;DHT22;25928;51.062;13.752;2022-10-22T06:53:30;14.00;1.00
816;DHT22;25928;51.062;13.752;2022-10-22T06:55:56;14.10;1.00
816;DHT22;25928;51.062;13.752;2022-10-22T06:58:21;14.00;1.00
816;DHT22;25928;51.062;13.752;2022-10-22T07:00:47;14.00;1.00
816;DHT22;25928;51.062;13.752;2022-10-22T07:03:13;14.10;1.00
816;DHT22;25928;51.062;13.752;2022-10-22T07:05:39;14.00;1.00
816;DHT22;25928;51.062;13.752;2022-10-22T07:08:05;14.00;1.00
816;DHT22;25928;51.062;13.752;2022-10-22T07:10:31;14.00;1.00
816;DHT22;25928;51.062;13.752;2022-10-22T07:12:57;14.10;1.00
816;DHT22;25928;51.062;13.752;2022-10-22T07:15:23;14.10;1.00
816;DHT22;25928;51.062;13.752;2022-10-22T07:20:16;14.00;1.00
816;DHT22;25928;51.062;13.752;2022-10-22T07:22:43;14.00;1.00
816;DHT22;25928;51.062;13.752;2022-10-22T07:25:09;14.00;1.00
816;DHT22;25928;51.062;13.752;2022-10-22T07:27:34;14.10;1.00
816;DHT22;25928;51.062;13.752;2022-10-22T07:30:00;14.00;1.00
816;DHT22;25928;51.062;13.752;2022-10-22T07:32:26;14.00;1.00
816;DHT22;25928;51.062;13.752;2022-10-22T07:34:51;15.10;1.00
816;DHT22;25928;51.062;13.752;2022-10-22T07:37:17;14.00;1.00
816;DHT22;25928;51.062;13.752;2022-10-22T07:39:49;14.00;1.00
816;DHT22;25928;51.062;13.752;2022-10-22T07:42:15;14.00;1.00
816;DHT22;25928;51.062;13.752;2022-10-22T07:44:40;14.00;1.00
816;DHT22;25928;51.062;13.752;2022-10-22T07:47:06;14.00;1.00
816;DHT22;25928;51.062;13.752;2022-10-22T07:49:31;13.90;1.00
816;DHT22;25928;51.062;13.752;2022-10-22T07:51:57;13.80;1.00
816;DHT22;25928;51.062;13.752;2022-10-22T07:54:23;13.80;1.00
816;DHT22;25928;51.062;13.752;2022-10-22T07:56:49;13.80;1.00
816;DHT22;25928;51.062;13.752;2022-10-22T07:59:14;13.80;1.00
816;DHT22;25928;51.062;13.752;2022-10-22T08:01:40;13.90;1.00
816;DHT22;25928;51.062;13.752;2022-10-22T08:04:05;13.80;1.00
816;DHT22;25928;51.062;13.752;2022-10-22T08:06:34;13.80;1.00
816;DHT22;25928;51.062;13.752;2022-10-22T08:09:00;13.70;1.00
816;DHT22;25928;51.062;13.752;2022-10-22T08:11:26;13.60;1.00
816;DHT22;25928;51.062;13.752;2022-10-22T08:13:52;13.30;1.00
816;DHT22;25928;51.062;13.752;2022-10-22T08:16:18;13.80;1.00
816;DHT22;25928;51.062;13.752;2022-10-22T08:18:44;13.90;1.00
816;DHT22;25928;51.062;13.752;2022-10-22T08:21:13;13.80;1.00
816;DHT22;25928;51.062;13.752;2022-10-22T08:23:38;13.80;1.00
816;DHT22;25928;51.062;13.752;2022-10-22T08:26:04;13.80;1.00
816;DHT22;25928;51.062;13.752;2022-10-22T08:28:30;13.70;1.00
816;DHT22;25928;51.062;13.752;2022-10-22T08:31:00;13.60;1.00
816;DHT22;25928;51.062;13.752;2022-10-22T08:33:51;13.50;1.00
816;DHT22;25928;51.062;13.752;2022-10-22T08:36:17;13.60;1.00
816;DHT22;25928;51.062;13.752;2022-10-22T08:38:45;13.60;1.00
816;DHT22;25928;51.062;13.752;2022-10-22T08:41:16;13.70;45.20
816;DHT22;25928;51.062;13.752;2022-10-22T08:49:48;14.40;58.30
816;DHT22;25928;51.062;13.752;2022-10-22T08:52:16;14.60;39.40
816;DHT22;25928;51.062;13.752;2022-10-22T08:54:53;14.70;23.70
816;DHT22;25928;51.062;13.752;2022-10-22T09:02:42;15.00;1.00
816;DHT22;25928;51.062;13.752;2022-10-22T09:07:38;15.10;1.00
816;DHT22;25928;51.062;13.752;2022-10-22T09:10:04;15.00;1.00
816;DHT22;25928;51.062;13.752;2022-10-22T09:12:30;15.00;1.00
816;DHT22;25928;51.062;13.752;2022-10-22T09:14:55;15.10;1.00
816;DHT22;25928;51.062;13.752;2022-10-22T09:17:40;15.30;1.00
816;DHT22;25928;51.062;13.752;2022-10-22T09:25:30;15.30;1.00
816;DHT22;25928;51.062;13.752;2022-10-22T09:30:28;15.40;1.00
816;DHT22;25928;51.062;13.752;2022-10-22T09:33:10;15.60;1.00
816;DHT22;25928;51.062;13.752;2022-10-22T09:35:54;15.80;1.00
816;DHT22;25928;51.062;13.752;2022-10-22T09:38:28;16.30;1.00
816;DHT22;25928;51.062;13.752;2022-10-22T09:40:57;16.40;1.00
816;DHT22;25928;51.062;13.752;2022-10-22T09:43:23;16.60;1.00
816;DHT22;25928;51.062;13.752;2022-10-22T09:45:55;16.70;1.00
816;DHT22;25928;51.062;13.752;2022-10-22T09:48:36;16.90;1.00
816;DHT22;25928;51.062;13.752;2022-10-22T09:51:22;17.10;1.00
816;DHT22;25928;51.062;13.752;2022-10-22T09:54:00;17.30;1.00
816;DHT22;25928;51.062;13.752;2022-10-22T09:56:38;17.50;1.00
816;DHT22;25928;51.062;13.752;2022-10-22T09:59:13;17.60;1.00
816;DHT22;25928;51.062;13.752;2022-10-22T10:01:39;17.60;1.00
816;DHT22;25928;51.062;13.752;2022-10-22T10:04:13;17.70;1.00
816;DHT22;25928;51.062;13.752;2022-10-22T10:06:41;17.90;1.00
816;DHT22;25928;51.062;13.752;2022-10-22T10:09:22;17.80;1.00
816;DHT22;25928;51.062;13.752;2022-10-22T10:12:15;18.00;1.00
816;DHT22;25928;51.062;13.752;2022-10-22T10:17:53;18.40;1.00
816;DHT22;25928;51.062;13.752;2022-10-22T10:20:48;18.50;1.00
816;DHT22;25928;51.062;13.752;2022-10-22T10:23:33;19.10;1.00
816;DHT22;25928;51.062;13.752;2022-10-22T10:26:12;19.30;1.00
816;DHT22;25928;51.062;13.752;2022-10-22T10:31:48;19.40;1.00
816;DHT22;25928;51.062;13.752;2022-10-22T10:37:23;19.50;1.00
816;DHT22;25928;51.062;13.752;2022-10-22T10:40:09;19.40;1.00
816;DHT22;25928;51.062;13.752;2022-10-22T10:42:42;19.30;1.00
816;DHT22;25928;51.062;13.752;2022-10-22T10:45:21;19.30;1.00
816;DHT22;25928;51.062;13.752;2022-10-22T10:51:00;19.70;1.00
816;DHT22;25928;51.062;13.752;2022-10-22T10:53:52;20.10;1.00
816;DHT22;25928;51.062;13.752;2022-10-22T10:56:41;19.90;1.00
816;DHT22;25928;51.062;13.752;2022-10-22T11:07:16;20.60;1.00
816;DHT22;25928;51.062;13.752;2022-10-22T11:09:52;20.90;1.00
816;DHT22;25928;51.062;13.752;2022-10-22T11:12:23;20.90;1.00
816;DHT22;25928;51.062;13.752;2022-10-22T11:15:00;20.90;1.00
816;DHT22;25928;51.062;13.752;2022-10-22T11:17:37;20.50;1.00
816;DHT22;25928;51.062;13.752;2022-10-22T11:22:42;20.00;1.00
816;DHT22;25928;51.062;13.752;2022-10-22T11:27:39;19.40;1.00
816;DHT22;25928;51.062;13.752;2022-10-22T11:30:20;19.20;1.00
816;DHT22;25928;51.062;13.752;2022-10-22T11:32:50;19.10;1.00
816;DHT22;25928;51.062;13.752;2022-10-22T11:35:23;19.00;1.00
816;DHT22;25928;51.062;13.752;2022-10-22T11:37:50;18.90;1.00
816;DHT22;25928;51.062;13.752;2022-10-22T11:40:24;19.00;1.00
816;DHT22;25928;51.062;13.752;2022-10-22T11:42:57;19.10;1.00
816;DHT22;25928;51.062;13.752;2022-10-22T11:48:17;19.40;1.00
816;DHT22;25928;51.062;13.752;2022-10-22T11:50:58;19.20;1.00
816;DHT22;25928;51.062;13.752;2022-10-22T11:55:56;18.90;1.00
816;DHT22;25928;51.062;13.752;2022-10-22T11:58:31;18.70;1.00
816;DHT22;25928;51.062;13.752;2022-10-22T12:06:25;18.50;1.00
816;DHT22;25928;51.062;13.752;2022-10-22T12:09:00;18.50;1.00
816;DHT22;25928;51.062;13.752;2022-10-22T12:11:46;18.60;1.00
816;DHT22;25928;51.062;13.752;2022-10-22T12:14:16;18.60;1.00
816;DHT22;25928;51.062;13.752;2022-10-22T12:16:52;18.60;1.00
816;DHT22;25928;51.062;13.752;2022-10-22T12:19:23;18.50;1.00
816;DHT22;25928;51.062;13.752;2022-10-22T12:24:50;18.30;1.00
816;DHT22;25928;51.062;13.752;2022-10-22T12:29:56;18.20;1.00
816;DHT22;25928;51.062;13.752;2022-10-22T12:32:35;18.30;1.00
816;DHT22;25928;51.062;13.752;2022-10-22T12:35:24;18.20;1.00
816;DHT22;25928;51.062;13.752;2022-10-22T12:37:51;18.30;1.00
816;DHT22;25928;51.062;13.752;2022-10-22T12:40:28;18.30;1.00
816;DHT22;25928;51.062;13.752;2022-10-22T12:43:06;18.40;1.00
816;DHT22;25928;51.062;13.752;2022-10-22T12:45:39;18.50;1.00
816;DHT22;25928;51.062;13.752;2022-10-22T12:48:13;18.60;1.00
816;DHT22;25928;51.062;13.752;2022-10-22T12:50:42;18.70;1.00
816;DHT22;25928;51.062;13.752;2022-10-22T12:55:46;18.90;1.00
816;DHT22;25928;51.062;13.752;2022-10-22T12:58:19;18.90;1.00
816;DHT22;25928;51.062;13.752;2022-10-22T13:00:46;18.90;1.00
816;DHT22;25928;51.062;13.752;2022-10-22T13:03:29;18.90;1.00
816;DHT22;25928;51.062;13.752;2022-10-22T13:05:55;18.90;1.00
816;DHT22;25928;51.062;13.752;2022-10-22T13:08:22;19.00;1.00
816;DHT22;25928;51.062;13.752;2022-10-22T13:10:52;19.00;1.00
816;DHT22;25928;51.062;13.752;2022-10-22T13:16:21;19.00;1.00
816;DHT22;25928;51.062;13.752;2022-10-22T13:18:49;18.90;1.00
816;DHT22;25928;51.062;13.752;2022-10-22T13:21:37;19.10;1.00
816;DHT22;25928;51.062;13.752;2022-10-22T13:24:21;19.20;1.00
816;DHT22;25928;51.062;13.752;2022-10-22T13:26:52;19.30;1.00
816;DHT22;25928;51.062;13.752;2022-10-22T13:29:19;19.30;1.00
816;DHT22;25928;51.062;13.752;2022-10-22T13:31:50;19.60;1.00
816;DHT22;25928;51.062;13.752;2022-10-22T13:34:19;19.80;1.00
816;DHT22;25928;51.062;13.752;2022-10-22T13:36:46;19.90;1.00
816;DHT22;25928;51.062;13.752;2022-10-22T13:39:19;19.90;1.00
816;DHT22;25928;51.062;13.752;2022-10-22T13:41:45;20.00;1.00
816;DHT22;25928;51.062;13.752;2022-10-22T13:44:12;20.00;1.00
816;DHT22;25928;51.062;13.752;2022-10-22T13:46:38;20.10;1.00
816;DHT22;25928;51.062;13.752;2022-10-22T13:49:11;20.00;1.00
816;DHT22;25928;51.062;13.752;2022-10-22T13:51:38;20.20;1.00
816;DHT22;25928;51.062;13.752;2022-10-22T13:54:09;20.10;1.00
816;DHT22;25928;51.062;13.752;2022-10-22T13:56:37;20.20;1.00
816;DHT22;25928;51.062;13.752;2022-10-22T13:59:03;20.20;1.00
816;DHT22;25928;51.062;13.752;2022-10-22T14:01:28;20.20;1.00
816;DHT22;25928;51.062;13.752;2022-10-22T14:03:57;20.00;1.00
816;DHT22;25928;51.062;13.752;2022-10-22T14:06:24;20.00;1.00
816;DHT22;25928;51.062;13.752;2022-10-22T14:08:56;20.00;1.00
816;DHT22;25928;51.062;13.752;2022-10-22T14:11:23;20.10;1.00
816;DHT22;25928;51.062;13.752;2022-10-22T14:13:50;20.10;1.00
816;DHT22;25928;51.062;13.752;2022-10-22T14:16:19;20.10;1.00
816;DHT22;25928;51.062;13.752;2022-10-22T14:18:45;20.10;1.00
816;DHT22;25928;51.062;13.752;2022-10-22T14:21:12;20.00;1.00
816;DHT22;25928;51.062;13.752;2022-10-22T14:23:39;19.80;1.00
816;DHT22;25928;51.062;13.752;2022-10-22T14:26:06;19.80;1.00
816;DHT22;25928;51.062;13.752;2022-10-22T14:28:33;19.80;1.00
816;DHT22;25928;51.062;13.752;2022-10-22T14:30:59;19.80;1.00
816;DHT22;25928;51.062;13.752;2022-10-22T14:33:28;19.70;1.00
816;DHT22;25928;51.062;13.752;2022-10-22T14:35:54;19.70;1.00
816;DHT22;25928;51.062;13.752;2022-10-22T14:38:20;19.80;1.00
816;DHT22;25928;51.062;13.752;2022-10-22T14:40:46;19.90;1.00
816;DHT22;25928;51.062;13.752;2022-10-22T14:43:20;20.10;1.00
816;DHT22;25928;51.062;13.752;2022-10-22T14:45:47;20.00;1.00
816;DHT22;25928;51.062;13.752;2022-10-22T14:48:12;20.00;1.00
816;DHT22;25928;51.062;13.752;2022-10-22T14:50:38;20.00;1.00
816;DHT22;25928;51.062;13.752;2022-10-22T14:53:04;20.00;1.00
816;DHT22;25928;51.062;13.752;2022-10-22T14:55:29;19.90;1.00
816;DHT22;25928;51.062;13.752;2022-10-22T14:57:56;19.80;1.00
816;DHT22;25928;51.062;13.752;2022-10-22T15:00:22;19.70;1.00
816;DHT22;25928;51.062;13.752;2022-10-22T15:02:48;19.70;1.00
816;DHT22;25928;51.062;13.752;2022-10-22T15:05:14;19.80;1.00
816;DHT22;25928;51.062;13.752;2022-10-22T15:07:42;19.80;1.00
816;DHT22;25928;51.062;13.752;2022-10-22T15:10:08;20.00;1.00
816;DHT22;25928;51.062;13.752;2022-10-22T15:12:34;20.80;1.00
816;DHT22;25928;51.062;13.752;2022-10-22T15:14:59;21.40;1.00
816;DHT22;25928;51.062;13.752;2022-10-22T15:17:25;21.90;1.00
816;DHT22;25928;51.062;13.752;2022-10-22T15:19:51;22.40;1.00
816;DHT22;25928;51.062;13.752;2022-10-22T15:22:17;22.70;1.00
816;DHT22;25928;51.062;13.752;2022-10-22T15:24:43;22.70;1.00
816;DHT22;25928;51.062;13.752;2022-10-22T15:27:12;22.50;1.00
816;DHT22;25928;51.062;13.752;2022-10-22T15:29:40;22.30;1.00
816;DHT22;25928;51.062;13.752;2022-10-22T15:32:07;22.30;1.00
816;DHT22;25928;51.062;13.752;2022-10-22T15:34:37;22.00;1.00
816;DHT22;25928;51.062;13.752;2022-10-22T15:37:05;21.90;1.00
816;DHT22;25928;51.062;13.752;2022-10-22T15:39:31;21.50;1.00
816;DHT22;25928;51.062;13.752;2022-10-22T15:41:57;20.80;1.00
816;DHT22;25928;51.062;13.752;2022-10-22T15:44:26;20.00;1.00
816;DHT22;25928;51.062;13.752;2022-10-22T15:46:53;20.00;1.00
816;DHT22;25928;51.062;13.752;2022-10-22T15:49:23;19.80;1.00
816;DHT22;25928;51.062;13.752;2022-10-22T15:51:49;19.50;1.00
816;DHT22;25928;51.062;13.752;2022-10-22T15:54:21;19.30;1.00
816;DHT22;25928;51.062;13.752;2022-10-22T15:56:47;19.30;1.00
816;DHT22;25928;51.062;13.752;2022-10-22T15:59:14;19.20;1.00
816;DHT22;25928;51.062;13.752;2022-10-22T16:01:41;18.90;1.00
816;DHT22;25928;51.062;13.752;2022-10-22T16:04:06;18.60;1.00
816;DHT22;25928;51.062;13.752;2022-10-22T16:06:35;18.60;1.00
816;DHT22;25928;51.062;13.752;2022-10-22T16:09:05;18.40;1.00
816;DHT22;25928;51.062;13.752;2022-10-22T16:11:32;17.80;1.00
816;DHT22;25928;51.062;13.752;2022-10-22T16:13:58;17.90;1.00
816;DHT22;25928;51.062;13.752;2022-10-22T16:16:28;17.70;1.00
816;DHT22;25928;51.062;13.752;2022-10-22T16:18:54;17.60;1.00
816;DHT22;25928;51.062;13.752;2022-10-22T16:21:20;17.60;1.00
816;DHT22;25928;51.062;13.752;2022-10-22T16:23:46;17.40;1.00
816;DHT22;25928;51.062;13.752;2022-10-22T16:26:12;17.30;1.00
816;DHT22;25928;51.062;13.752;2022-10-22T16:28:40;16.90;1.00
816;DHT22;25928;51.062;13.752;2022-10-22T16:31:07;16.90;1.00
816;DHT22;25928;51.062;13.752;2022-10-22T16:33:34;16.70;1.00
816;DHT22;25928;51.062;13.752;2022-10-22T16:36:00;16.60;1.00
816;DHT22;25928;51.062;13.752;2022-10-22T16:38:26;16.70;1.00
816;DHT22;25928;51.062;13.752;2022-10-22T16:40:51;16.40;1.00
816;DHT22;25928;51.062;13.752;2022-10-22T16:43:17;16.40;1.00
816;DHT22;25928;51.062;13.752;2022-10-22T16:45:50;16.30;1.00
816;DHT22;25928;51.062;13.752;2022-10-22T16:48:16;16.40;1.00
816;DHT22;25928;51.062;13.752;2022-10-22T16:50:42;16.20;1.00
816;DHT22;25928;51.062;13.752;2022-10-22T16:53:08;16.10;1.00
816;DHT22;25928;51.062;13.752;2022-10-22T16:55:40;16.10;1.00
816;DHT22;25928;51.062;13.752;2022-10-22T16:58:05;16.00;1.00
816;DHT22;25928;51.062;13.752;2022-10-22T17:00:32;15.90;1.00
816;DHT22;25928;51.062;13.752;2022-10-22T17:02:57;15.90;1.00
816;DHT22;25928;51.062;13.752;2022-10-22T17:05:24;15.90;1.00
816;DHT22;25928;51.062;13.752;2022-10-22T17:07:50;15.80;1.00
816;DHT22;25928;51.062;13.752;2022-10-22T17:10:16;15.80;1.00
816;DHT22;25928;51.062;13.752;2022-10-22T17:12:44;15.80;1.00
816;DHT22;25928;51.062;13.752;2022-10-22T17:15:10;15.80;1.00
816;DHT22;25928;51.062;13.752;2022-10-22T17:17:37;15.90;1.00
816;DHT22;25928;51.062;13.752;2022-10-22T17:20:03;15.90;1.00
816;DHT22;25928;51.062;13.752;2022-10-22T17:22:29;15.90;1.00
816;DHT22;25928;51.062;13.752;2022-10-22T17:27:35;15.80;1.00
816;DHT22;25928;51.062;13.752;2022-10-22T17:30:02;15.80;1.00
816;DHT22;25928;51.062;13.752;2022-10-22T17:32:27;15.70;1.00
816;DHT22;25928;51.062;13.752;2022-10-22T17:34:54;15.60;1.00
816;DHT22;25928;51.062;13.752;2022-10-22T17:37:19;15.40;1.00
816;DHT22;25928;51.062;13.752;2022-10-22T17:39:45;15.50;1.00
816;DHT22;25928;51.062;13.752;2022-10-22T17:42:10;15.40;1.00
816;DHT22;25928;51.062;13.752;2022-10-22T17:44:36;15.40;1.00
816;DHT22;25928;51.062;13.752;2022-10-22T17:47:02;15.40;1.00
816;DHT22;25928;51.062;13.752;2022-10-22T17:49:29;15.20;1.00
816;DHT22;25928;51.062;13.752;2022-10-22T17:51:55;15.20;1.00
816;DHT22;25928;51.062;13.752;2022-10-22T17:54:20;15.20;1.00
816;DHT22;25928;51.062;13.752;2022-10-22T17:56:46;15.10;1.00
816;DHT22;25928;51.062;13.752;2022-10-22T17:59:13;15.00;1.00